Time;durP1;ratioP1;P1;durP2;ratioP2;P2;SDS_P1;SDS_P2;PMS_P1;PMS_P2;Temp;Humidity;BMP_temperature;BMP_pressure;BME280_temperature;BME280_humidity;BME280_pressure;Samples;Min_cycle;Max_cycle;Signal;HPM_P1;HPM_P2
2022/03/04 00:01:23;;;;;;;4.17;3.77;;;;;;;11.58;50.86;99139.73;1814771;78;20994;-71
2022/03/04 00:03:49;;;;;;;3.65;3.35;;;;;;;11.58;50.87;99133.60;1811827;79;20987;-71
2022/03/04 00:06:15;;;;;;;3.85;2.90;;;;;;;11.59;50.87;99140.07;1803210;78;21175;-72
2022/03/04 00:08:42;;;;;;;3.45;3.15;;;;;;;11.58;50.88;99134.94;1802632;79;21068;-71
2022/03/04 00:11:08;;;;;;;3.40;3.10;;;;;;;11.59;50.88;99142.73;1802794;79;21053;-71
2022/03/04 00:13:35;;;;;;;3.00;2.70;;;;;;;11.57;50.89;99135.45;1802696;79;21006;-70
2022/03/04 00:16:01;;;;;;;3.10;2.80;;;;;;;11.57;50.89;99134.13;1802648;79;21024;-72
2022/03/04 00:18:28;;;;;;;3.35;3.05;;;;;;;11.58;50.88;99137.59;1802789;79;21497;-71
2022/03/04 00:20:54;;;;;;;2.90;2.60;;;;;;;11.57;50.89;99132.79;1802861;79;21595;-70
2022/03/04 00:23:20;;;;;;;3.15;2.85;;;;;;;11.57;50.89;99135.45;1786865;78;21005;-71
2022/03/04 00:25:46;;;;;;;3.58;3.08;;;;;;;11.57;50.88;99133.27;1782477;80;21010;-71
2022/03/04 00:28:13;;;;;;;3.12;2.83;;;;;;;11.57;50.91;99129.28;1782338;79;21033;-70
2022/03/04 00:30:39;;;;;;;3.40;3.10;;;;;;;11.57;50.89;99128.80;1771532;80;21252;-71
2022/03/04 00:33:05;;;;;;;3.00;2.65;;;;;;;11.57;50.89;99129.28;1782263;80;21744;-70
2022/03/04 00:35:32;;;;;;;3.90;2.87;;;;;;;11.57;50.89;99124.80;1782219;80;21018;-71
2022/03/04 00:37:58;;;;;;;3.60;3.25;;;;;;;11.57;50.88;99122.15;1782288;79;21069;-70
2022/03/04 00:40:25;;;;;;;3.35;2.87;;;;;;;11.56;50.90;99117.83;1783378;79;21001;-71
2022/03/04 00:42:51;;;;;;;3.33;3.00;;;;;;;11.56;50.89;99115.68;1782525;79;23286;-71
2022/03/04 00:45:18;;;;;;;3.37;2.98;;;;;;;11.56;50.90;99121.81;1782347;80;21497;-70
2022/03/04 00:47:44;;;;;;;3.92;3.02;;;;;;;11.56;50.89;99121.00;1771542;80;21029;-71
2022/03/04 00:50:10;;;;;;;2.72;2.52;;;;;;;11.56;50.89;99123.14;1782674;79;21014;-71
2022/03/04 00:52:37;;;;;;;3.50;3.20;;;;;;;11.56;50.90;99124.48;1782452;79;21018;-71
2022/03/04 00:55:05;;;;;;;3.37;3.08;;;;;;;11.56;50.90;99122.33;1810620;79;21102;-70
2022/03/04 00:57:32;;;;;;;3.30;3.00;;;;;;;11.55;50.90;99122.00;1813636;78;21066;-70
2022/03/04 00:59:58;;;;;;;3.62;3.15;;;;;;;11.54;50.93;99117.20;1814737;78;21009;-70
2022/03/04 01:02:24;;;;;;;3.87;3.47;;;;;;;11.54;50.90;99116.37;1814634;78;21092;-71
2022/03/04 01:04:50;;;;;;;3.60;3.22;;;;;;;11.55;50.93;99126.84;1814593;78;21509;-71
2022/03/04 01:07:18;;;;;;;3.10;2.80;;;;;;;11.55;50.93;99123.33;1814582;78;20998;-70
2022/03/04 01:09:44;;;;;;;4.15;3.35;;;;;;;11.55;50.90;99125.98;1809514;78;21249;-71
2022/03/04 01:12:10;;;;;;;3.20;2.90;;;;;;;11.54;50.91;99122.52;1812610;79;21522;-71
2022/03/04 01:14:36;;;;;;;2.70;2.50;;;;;;;11.54;50.91;99121.19;1785494;78;21099;-70
2022/03/04 01:17:04;;;;;;;3.22;2.92;;;;;;;11.55;50.94;99118.86;1782622;79;21092;-71
2022/03/04 01:19:30;;;;;;;3.47;3.12;;;;;;;11.53;50.91;99111.58;1782763;79;21081;-70
2022/03/04 01:21:56;;;;;;;3.42;2.92;;;;;;;11.53;50.93;99114.23;1782409;79;21497;-70
2022/03/04 01:24:23;;;;;;;3.95;3.30;;;;;;;11.53;50.92;99113.39;1782776;80;21170;-71
2022/03/04 01:26:49;;;;;;;3.20;2.83;;;;;;;11.53;50.93;99116.89;1771651;80;20994;-71
2022/03/04 01:29:15;;;;;;;3.17;2.77;;;;;;;11.53;50.92;99114.23;1782493;80;21083;-71
2022/03/04 01:31:41;;;;;;;3.60;2.72;;;;;;;11.53;50.92;99116.05;1772684;79;21046;-71
2022/03/04 01:34:07;;;;;;;3.35;2.90;;;;;;;11.53;50.91;99116.05;1782906;79;21061;-70
2022/03/04 01:36:35;;;;;;;3.65;3.15;;;;;;;11.53;50.93;99113.39;1771570;80;21049;-70
2022/03/04 01:39:02;;;;;;;3.40;3.10;;;;;;;11.53;50.92;99119.55;1771730;80;21491;-71
2022/03/04 01:41:28;;;;;;;3.45;3.15;;;;;;;11.53;50.91;99114.72;1771712;80;21542;-70
2022/03/04 01:43:55;;;;;;;3.12;2.83;;;;;;;11.52;50.92;99117.89;1782390;79;21153;-71
2022/03/04 01:46:26;;;;;;;3.17;2.87;;;;;;;11.53;50.93;99117.37;1782750;79;21022;-70
2022/03/04 01:48:52;;;;;;;4.37;3.58;;;;;;;11.53;50.92;99120.03;1782783;79;21069;-71
2022/03/04 01:51:19;;;;;;;3.60;3.30;;;;;;;11.52;50.91;99124.54;1771781;80;21549;-71
2022/03/04 01:53:45;;;;;;;3.55;2.98;;;;;;;11.51;50.91;99120.25;1782627;79;21046;-72
2022/03/04 01:56:12;;;;;;;3.40;3.10;;;;;;;11.51;50.92;99120.25;1818234;77;21195;-73
2022/03/04 01:58:39;;;;;;;3.30;3.00;;;;;;;11.51;50.92;99123.39;1826112;78;21029;-71
2022/03/04 02:01:06;;;;;;;3.45;3.15;;;;;;;11.50;50.91;99122.58;1807603;78;20974;-71
2022/03/04 02:03:32;;;;;;;3.12;2.85;;;;;;;11.51;50.92;99122.91;1825629;78;20991;-71
2022/03/04 02:05:58;;;;;;;3.33;3.02;;;;;;;11.51;50.93;99126.05;1826058;78;21002;-72
2022/03/04 02:08:24;;;;;;;3.70;3.40;;;;;;;11.50;50.96;99123.91;1826217;78;21179;-70
2022/03/04 02:10:50;;;;;;;3.67;3.10;;;;;;;11.51;50.94;99130.05;1826288;78;21011;-70
2022/03/04 02:13:16;;;;;;;3.45;3.10;;;;;;;11.50;50.93;99134.55;1826310;78;21001;-71
2022/03/04 02:15:44;;;;;;;3.65;3.10;;;;;;;11.49;50.92;99124.94;1825828;78;20996;-71
2022/03/04 02:18:16;;;;;;;3.75;2.90;;;;;;;11.49;50.94;99126.27;1826094;78;21511;-71
2022/03/04 02:20:51;;;;;;;3.87;3.47;;;;;;;11.49;50.95;99127.59;1822757;78;21144;-71
2022/03/04 02:23:18;;;;;;;3.55;3.22;;;;;;;11.49;50.94;99129.41;1793528;80;21010;-71
2022/03/04 02:25:50;;;;;;;3.60;3.30;;;;;;;11.49;50.94;99125.42;1793881;80;21041;-71
2022/03/04 02:28:17;;;;;;;3.70;3.40;;;;;;;11.48;50.96;99121.95;1793917;79;21022;-71
2022/03/04 02:30:44;;;;;;;3.10;2.80;;;;;;;11.48;50.96;99127.78;1794088;79;21045;-71
2022/03/04 02:33:10;;;;;;;3.52;2.87;;;;;;;11.48;50.94;99124.61;1794141;79;21205;-71
2022/03/04 02:35:36;;;;;;;3.62;3.33;;;;;;;11.48;50.95;99126.45;1794230;79;21056;-70
2022/03/04 02:38:03;;;;;;;3.17;2.85;;;;;;;11.48;50.94;99131.77;1794671;78;21553;-71
2022/03/04 02:40:29;;;;;;;3.10;2.80;;;;;;;11.48;50.96;99130.44;1793915;79;21044;-71
2022/03/04 02:42:56;;;;;;;4.05;3.33;;;;;;;11.47;50.96;99130.92;1793633;79;20990;-70
2022/03/04 02:45:22;;;;;;;4.08;3.50;;;;;;;11.46;50.96;99135.94;1793534;80;21151;-70
2022/03/04 02:47:48;;;;;;;3.30;3.00;;;;;;;11.47;50.95;99142.08;1793548;79;21541;-71
2022/03/04 02:50:15;;;;;;;3.65;3.30;;;;;;;11.46;50.95;99141.27;1793535;80;21064;-71
2022/03/04 02:52:43;;;;;;;3.35;3.05;;;;;;;11.45;50.96;99140.93;1775648;80;21497;-71
2022/03/04 02:55:11;;;;;;;3.50;3.20;;;;;;;11.45;50.96;99136.94;1822531;78;21052;-71
2022/03/04 02:57:40;;;;;;;3.60;3.27;;;;;;;11.46;50.95;99139.12;1817140;78;21025;-71
2022/03/04 03:00:07;;;;;;;3.65;3.15;;;;;;;11.46;50.96;99150.57;1814469;79;21022;-71
2022/03/04 03:02:33;;;;;;;3.67;3.22;;;;;;;11.45;50.97;99146.25;1803549;79;21549;-71
2022/03/04 03:04:59;;;;;;;3.65;3.02;;;;;;;11.45;50.96;99150.23;1803443;79;21471;-70
2022/03/04 03:07:25;;;;;;;4.12;3.20;;;;;;;11.46;50.95;99149.75;1814869;78;21533;-71
2022/03/04 03:09:52;;;;;;;3.50;3.20;;;;;;;11.46;50.96;99149.24;1803276;79;21611;-71
2022/03/04 03:12:18;;;;;;;3.95;3.50;;;;;;;11.46;50.95;99148.42;1813235;78;21018;-70
2022/03/04 03:14:44;;;;;;;3.65;3.33;;;;;;;11.46;50.94;99146.58;1814458;78;21522;-71
2022/03/04 03:17:11;;;;;;;3.33;3.02;;;;;;;11.46;50.94;99153.75;1803349;79;21045;-71
2022/03/04 03:19:37;;;;;;;4.05;3.65;;;;;;;11.46;50.95;99148.42;1812731;78;21501;-71
2022/03/04 03:22:04;;;;;;;3.10;2.80;;;;;;;11.45;50.94;99150.75;1809520;78;20983;-71
2022/03/04 03:24:30;;;;;;;3.67;3.25;;;;;;;11.45;50.93;99155.56;1814454;79;21487;-71
2022/03/04 03:26:56;;;;;;;2.85;2.55;;;;;;;11.45;50.94;99157.41;1803523;79;21633;-70
2022/03/04 03:29:22;;;;;;;3.45;3.00;;;;;;;11.45;50.92;99161.39;1801788;78;21510;-71
2022/03/04 03:31:49;;;;;;;3.27;2.98;;;;;;;11.45;50.94;99156.07;1782844;79;21073;-71
2022/03/04 03:34:15;;;;;;;4.17;3.33;;;;;;;11.44;50.92;99159.25;1771662;80;21065;-71
2022/03/04 03:36:41;;;;;;;3.50;3.08;;;;;;;11.44;50.92;99160.58;1783055;79;20998;-70
2022/03/04 03:39:10;;;;;;;3.52;3.22;;;;;;;11.44;50.94;99159.25;1782535;79;21282;-71
2022/03/04 03:41:36;;;;;;;3.77;3.10;;;;;;;11.44;50.92;99163.23;1782355;79;21018;-70
2022/03/04 03:44:03;;;;;;;3.52;3.00;;;;;;;11.44;50.92;99158.43;1782635;80;21022;-71
2022/03/04 03:46:29;;;;;;;3.10;2.70;;;;;;;11.43;50.91;99158.91;1783433;79;21198;-72
2022/03/04 03:48:55;;;;;;;3.20;2.90;;;;;;;11.44;50.91;99159.77;1771513;80;20971;-72
2022/03/04 03:51:22;;;;;;;3.15;2.80;;;;;;;11.43;50.92;99160.24;1782495;80;21541;-71
2022/03/04 03:53:48;;;;;;;3.45;2.95;;;;;;;11.43;50.90;99166.89;1794026;79;21011;-71
2022/03/04 03:56:14;;;;;;;3.25;2.90;;;;;;;11.44;50.90;99163.75;1831703;78;21022;-71
2022/03/04 03:58:40;;;;;;;3.77;3.20;;;;;;;11.43;50.91;99161.58;1825907;78;21160;-70
2022/03/04 04:01:06;;;;;;;4.33;3.65;;;;;;;11.43;50.90;99158.09;1825940;78;21745;-70
2022/03/04 04:03:33;;;;;;;3.65;3.20;;;;;;;11.41;50.92;99156.95;1819820;78;21568;-71
2022/03/04 04:05:59;;;;;;;3.37;3.05;;;;;;;11.41;50.91;99160.94;1793571;80;21021;-71
2022/03/04 04:08:25;;;;;;;3.62;3.30;;;;;;;11.41;50.92;99157.80;1793871;79;21116;-70
2022/03/04 04:10:51;;;;;;;3.33;2.90;;;;;;;11.41;50.91;99164.93;1793633;80;21153;-71
2022/03/04 04:13:18;;;;;;;3.22;2.75;;;;;;;11.40;50.90;99162.78;1793434;80;21017;-71
2022/03/04 04:15:44;;;;;;;3.75;2.80;;;;;;;11.41;50.90;99163.59;1793818;79;21630;-71
2022/03/04 04:18:10;;;;;;;3.55;3.25;;;;;;;11.40;50.90;99159.31;1776232;80;21131;-70
2022/03/04 04:20:37;;;;;;;3.58;3.27;;;;;;;11.40;50.91;99152.66;1794622;78;21524;-71
2022/03/04 04:23:03;;;;;;;3.67;3.05;;;;;;;11.39;50.90;99158.46;1793909;80;22139;-70
2022/03/04 04:25:30;;;;;;;3.45;2.98;;;;;;;11.40;50.90;99152.66;1810283;78;20985;-72
2022/03/04 04:27:56;;;;;;;3.77;3.02;;;;;;;11.40;50.90;99152.66;1826382;78;21488;-71
2022/03/04 04:30:22;;;;;;;3.42;2.87;;;;;;;11.38;50.89;99153.36;1826392;78;21048;-70
2022/03/04 04:32:48;;;;;;;3.22;2.80;;;;;;;11.39;50.91;99156.31;1807557;78;21102;-71
2022/03/04 04:35:14;;;;;;;3.87;2.87;;;;;;;11.39;50.90;99157.64;1826137;78;22027;-70
2022/03/04 04:37:41;;;;;;;3.80;3.12;;;;;;;11.38;50.87;99151.52;1809310;78;21521;-71
2022/03/04 04:40:09;;;;;;;4.55;3.05;;;;;;;11.39;50.90;99157.64;1775873;80;21060;-71
2022/03/04 04:42:35;;;;;;;3.55;3.10;;;;;;;11.38;50.87;99150.18;1793900;80;21065;-71
2022/03/04 04:45:01;;;;;;;3.67;3.35;;;;;;;11.38;50.88;99153.36;1793953;80;20978;-70
2022/03/04 04:47:28;;;;;;;3.08;2.70;;;;;;;11.38;50.88;99149.36;1793620;79;21160;-70
2022/03/04 04:49:54;;;;;;;3.33;2.60;;;;;;;11.37;50.91;99157.83;1793499;79;21565;-69
2022/03/04 04:52:20;;;;;;;3.90;3.40;;;;;;;11.36;50.89;99157.52;1775779;80;21544;-72
2022/03/04 04:54:47;;;;;;;3.22;2.80;;;;;;;11.37;50.89;99154.35;1817537;78;21013;-72
2022/03/04 04:57:13;;;;;;;3.33;3.00;;;;;;;11.37;50.88;99153.02;1805065;78;21068;-71
2022/03/04 04:59:39;;;;;;;4.30;3.33;;;;;;;11.37;50.88;99155.68;1820981;78;21450;-72
2022/03/04 05:02:06;;;;;;;3.25;2.95;;;;;;;11.37;50.85;99159.67;1820303;78;20979;-71
2022/03/04 05:04:32;;;;;;;3.12;2.75;;;;;;;11.36;50.87;99158.85;1800003;78;21428;-71
2022/03/04 05:06:59;;;;;;;3.65;3.33;;;;;;;11.36;50.88;99160.70;1820286;78;21057;-71
2022/03/04 05:09:25;;;;;;;3.42;3.12;;;;;;;11.36;50.89;99168.16;1799953;78;21056;-70
2022/03/04 05:11:51;;;;;;;3.12;2.83;;;;;;;11.36;50.88;99168.67;1819547;78;21140;-72
2022/03/04 05:14:17;;;;;;;3.35;2.90;;;;;;;11.36;50.88;99168.67;1820689;78;21022;-71
2022/03/04 05:16:43;;;;;;;4.75;3.55;;;;;;;11.35;50.87;99170.48;1820304;78;20970;-72
2022/03/04 05:19:09;;;;;;;3.60;3.30;;;;;;;11.36;50.88;99166.83;1799923;78;20994;-71
2022/03/04 05:21:36;;;;;;;4.12;3.58;;;;;;;11.36;50.90;99176.14;1820280;78;22035;-71
2022/03/04 05:24:06;;;;;;;4.00;3.58;;;;;;;11.35;50.89;99175.80;1820297;78;21163;-70
2022/03/04 05:26:37;;;;;;;4.08;3.47;;;;;;;11.35;50.88;99177.14;1820211;78;20971;-72
2022/03/04 05:29:09;;;;;;;4.50;3.25;;;;;;;11.35;50.89;99173.66;1818785;78;21127;-71
2022/03/04 05:31:34;;;;;;;3.35;3.05;;;;;;;11.35;50.89;99174.99;1815485;77;21059;-71
2022/03/04 05:34:00;;;;;;;4.65;3.80;;;;;;;11.35;50.89;99177.65;1854120;76;21057;-70
2022/03/04 05:36:26;;;;;;;3.60;3.12;;;;;;;11.35;50.89;99177.65;1853851;76;21145;-71
2022/03/04 05:38:52;;;;;;;3.45;3.08;;;;;;;11.35;50.88;99176.32;1832813;77;20995;-71
2022/03/04 05:41:19;;;;;;;3.87;3.17;;;;;;;11.35;50.90;99180.31;1853853;76;21482;-71
2022/03/04 05:43:46;;;;;;;3.85;3.30;;;;;;;11.35;50.89;99184.30;1853800;76;21443;-73
2022/03/04 05:46:13;;;;;;;4.47;3.62;;;;;;;11.35;50.87;99186.44;1783467;77;21509;-70
2022/03/04 05:48:40;;;;;;;4.78;3.15;;;;;;;11.35;50.88;99193.09;1768284;80;21845;-70
2022/03/04 05:51:07;;;;;;;4.20;3.45;;;;;;;11.35;50.87;99197.59;1787981;80;21526;-70
2022/03/04 05:53:33;;;;;;;3.95;3.42;;;;;;;11.36;50.87;99208.56;1796451;78;21537;-71
2022/03/04 05:56:01;;;;;;;3.50;3.20;;;;;;;11.36;50.88;99207.23;1820345;77;21490;-71
2022/03/04 05:58:27;;;;;;;3.62;3.05;;;;;;;11.36;50.89;99211.22;1803910;78;20991;-70
2022/03/04 06:00:53;;;;;;;4.00;3.35;;;;;;;11.36;50.88;99212.05;1825755;78;22013;-70
2022/03/04 06:03:20;;;;;;;3.58;3.10;;;;;;;11.36;50.87;99216.03;1824461;78;20994;-71
2022/03/04 06:05:46;;;;;;;3.83;3.37;;;;;;;11.36;50.87;99223.19;1825961;78;21064;-71
2022/03/04 06:08:12;;;;;;;3.80;3.22;;;;;;;11.37;50.89;99222.16;1826186;78;20977;-71
2022/03/04 06:10:38;;;;;;;3.98;3.20;;;;;;;11.37;50.87;99230.95;1825799;78;21150;-72
2022/03/04 06:13:04;;;;;;;4.03;3.62;;;;;;;11.38;50.87;99225.16;1825787;78;21115;-70
2022/03/04 06:15:30;;;;;;;5.08;4.15;;;;;;;11.38;50.89;99228.64;1825773;78;20990;-71
2022/03/04 06:17:57;;;;;;;3.60;2.90;;;;;;;11.39;50.87;99224.95;1826337;78;21015;-71
2022/03/04 06:20:23;;;;;;;3.95;3.55;;;;;;;11.39;50.86;99224.13;1777749;79;21517;-71
2022/03/04 06:22:49;;;;;;;3.92;3.52;;;;;;;11.39;50.88;99232.92;1771733;80;21096;-70
2022/03/04 06:25:16;;;;;;;3.40;3.10;;;;;;;11.40;50.87;99231.93;1791930;80;22010;-70
2022/03/04 06:27:57;;;;;;;3.35;2.77;;;;;;;11.41;50.89;99238.06;1791506;79;21013;-71
2022/03/04 06:30:23;;;;;;;3.22;2.92;;;;;;;11.42;50.88;99239.73;1791939;79;21080;-71
2022/03/04 06:32:50;;;;;;;4.60;3.52;;;;;;;11.42;50.86;99235.73;1806798;78;20970;-72
2022/03/04 06:35:17;;;;;;;3.67;3.27;;;;;;;11.42;50.89;99230.42;1825557;78;21002;-72
2022/03/04 06:37:43;;;;;;;3.35;3.05;;;;;;;11.43;50.85;99238.70;1816486;78;21470;-71
2022/03/04 06:40:11;;;;;;;3.80;3.25;;;;;;;11.44;50.87;99237.70;1826065;78;20974;-71
2022/03/04 06:42:37;;;;;;;3.90;3.30;;;;;;;11.45;50.87;99230.03;1825675;78;21623;-72
2022/03/04 06:45:06;;;;;;;4.55;3.45;;;;;;;11.46;50.86;99229.55;1826172;78;21348;-71
2022/03/04 06:47:32;;;;;;;3.87;3.37;;;;;;;11.46;50.85;99227.70;1825872;78;21065;-71
2022/03/04 06:49:58;;;;;;;3.67;3.17;;;;;;;11.46;50.85;99229.03;1826136;78;21169;-71
2022/03/04 06:52:25;;;;;;;3.77;3.20;;;;;;;11.47;50.83;99235.98;1825214;78;21025;-71
2022/03/04 06:54:51;;;;;;;4.15;3.35;;;;;;;11.48;50.84;99228.34;1819118;78;21043;-71
2022/03/04 06:57:18;;;;;;;3.80;3.30;;;;;;;11.50;50.83;99234.81;1824208;78;21168;-70
2022/03/04 06:59:44;;;;;;;4.10;3.10;;;;;;;11.52;50.81;99232.79;1814653;78;21022;-70
2022/03/04 07:02:12;;;;;;;3.92;3.12;;;;;;;11.51;50.82;99227.13;1814535;79;21540;-71
2022/03/04 07:04:38;;;;;;;3.87;3.30;;;;;;;11.52;50.82;99230.94;1814589;79;21034;-71
2022/03/04 07:07:05;;;;;;;4.15;3.02;;;;;;;11.54;50.80;99230.77;1814609;79;21002;-71
2022/03/04 07:09:33;;;;;;;3.75;3.30;;;;;;;11.57;50.79;99235.69;1812414;78;21041;-71
2022/03/04 07:11:59;;;;;;;3.90;3.08;;;;;;;11.57;50.81;99233.03;1782695;79;21046;-71
2022/03/04 07:14:27;;;;;;;3.90;3.40;;;;;;;11.58;50.79;99236.03;1782524;79;21283;-70
2022/03/04 07:16:53;;;;;;;4.12;3.60;;;;;;;11.59;50.79;99229.70;1782245;80;21053;-71
2022/03/04 07:19:20;;;;;;;3.12;2.77;;;;;;;11.60;50.78;99232.16;1782476;80;20978;-70
2022/03/04 07:21:46;;;;;;;3.60;2.92;;;;;;;11.61;50.75;99233.82;1782354;80;21053;-71
2022/03/04 07:24:13;;;;;;;3.80;3.40;;;;;;;11.64;50.75;99235.78;1782424;80;21042;-70
2022/03/04 07:26:40;;;;;;;3.40;2.83;;;;;;;11.65;50.73;99228.11;1783663;79;21182;-71
2022/03/04 07:29:06;;;;;;;3.62;2.75;;;;;;;11.66;50.73;99231.91;1782312;80;21616;-70
2022/03/04 07:31:33;;;;;;;4.12;3.00;;;;;;;11.67;50.73;99228.77;1782307;80;21009;-70
2022/03/04 07:33:59;;;;;;;3.30;3.00;;;;;;;11.70;50.71;99232.37;1812169;79;20984;-70
2022/03/04 07:36:26;;;;;;;4.33;3.37;;;;;;;11.70;50.70;99232.37;1814501;79;20994;-71
2022/03/04 07:38:55;;;;;;;3.37;2.98;;;;;;;11.71;50.70;99234.84;1814512;79;21263;-71
2022/03/04 07:41:21;;;;;;;4.17;3.47;;;;;;;11.73;50.71;99237.33;1813179;78;21014;-71
2022/03/04 07:43:48;;;;;;;3.72;3.20;;;;;;;11.74;50.67;99235.81;1806322;78;21009;-70
2022/03/04 07:46:14;;;;;;;3.70;3.30;;;;;;;11.75;50.68;99229.47;1782785;79;21069;-71
2022/03/04 07:48:40;;;;;;;3.27;2.80;;;;;;;11.76;50.65;99233.79;1782644;80;21021;-71
2022/03/04 07:51:07;;;;;;;4.60;3.75;;;;;;;11.78;50.65;99238.90;1782792;79;21151;-71
2022/03/04 07:53:33;;;;;;;3.95;3.12;;;;;;;11.79;50.65;99237.39;1782306;79;21026;-71
2022/03/04 07:55:59;;;;;;;3.90;3.50;;;;;;;11.81;50.62;99238.53;1782457;80;21489;-70
2022/03/04 07:58:26;;;;;;;4.53;3.08;;;;;;;11.82;50.62;99232.22;1787815;80;21539;-71
2022/03/04 08:00:52;;;;;;;3.30;2.98;;;;;;;11.83;50.61;99237.84;1794525;78;21009;-70
2022/03/04 08:03:19;;;;;;;3.50;2.92;;;;;;;11.84;50.61;99234.18;1793633;80;21236;-69
2022/03/04 08:05:45;;;;;;;3.90;3.25;;;;;;;11.86;50.60;99233.48;1793620;80;20998;-71
2022/03/04 08:08:12;;;;;;;3.95;3.27;;;;;;;11.87;50.58;99236.45;1793542;79;21021;-71
2022/03/04 08:13:27;;;;;;;4.08;3.17;;;;;;;11.95;50.58;99240.86;1889368;76;28071;-70
2022/03/04 08:15:58;;;;;;;3.50;3.20;;;;;;;11.92;50.57;99247.39;1860287;77;20998;-71
2022/03/04 08:18:25;;;;;;;3.83;3.15;;;;;;;11.94;50.54;99242.70;1859118;77;21196;-71
2022/03/04 08:20:53;;;;;;;3.37;3.08;;;;;;;11.96;50.53;99241.19;1860049;77;20957;-71
2022/03/04 08:23:19;;;;;;;3.08;2.70;;;;;;;11.97;50.53;99240.16;1860509;77;20964;-71
2022/03/04 08:25:46;;;;;;;3.85;3.47;;;;;;;11.99;50.52;99244.78;1860215;77;20972;-70
2022/03/04 08:28:12;;;;;;;3.77;3.22;;;;;;;12.01;50.51;99240.09;1860522;77;21075;-70
2022/03/04 08:30:39;;;;;;;3.92;3.25;;;;;;;12.02;50.49;99236.44;1860173;77;21183;-72
2022/03/04 08:33:06;;;;;;;3.22;2.92;;;;;;;12.05;50.48;99239.21;1860069;77;20936;-71
2022/03/04 08:35:34;;;;;;;4.03;3.17;;;;;;;12.07;50.49;99237.19;1856151;77;21540;-71
2022/03/04 08:38:02;;;;;;;4.05;2.90;;;;;;;12.09;50.45;99245.80;1852567;77;21496;-71
2022/03/04 08:40:29;;;;;;;3.87;2.98;;;;;;;12.12;50.42;99247.58;1852227;77;21024;-72
2022/03/04 08:42:56;;;;;;;3.77;3.37;;;;;;;12.15;50.44;99247.73;1852448;77;21868;-71
2022/03/04 08:45:23;;;;;;;3.35;2.92;;;;;;;12.19;50.44;99252.98;1852041;77;20981;-70
2022/03/04 08:47:49;;;;;;;3.35;2.90;;;;;;;12.23;50.41;99252.07;1838715;77;21007;-70
2022/03/04 08:50:16;;;;;;;3.70;3.20;;;;;;;12.26;50.39;99247.19;1850875;77;21033;-70
2022/03/04 08:52:43;;;;;;;3.60;3.30;;;;;;;12.30;50.37;99252.45;1841986;77;21076;-70
2022/03/04 08:55:14;;;;;;;3.40;3.10;;;;;;;12.35;50.32;99253.23;1826547;78;21732;-70
2022/03/04 08:57:38;;;;;;;3.17;2.87;;;;;;;12.38;50.28;99252.83;1826063;78;20993;-70
2022/03/04 09:00:06;;;;;;;3.42;2.90;;;;;;;12.41;50.27;99251.12;1826593;78;21029;-71
2022/03/04 09:02:32;;;;;;;4.25;3.45;;;;;;;12.45;50.23;99259.56;1826742;78;21005;-72
2022/03/04 09:04:59;;;;;;;3.42;3.08;;;;;;;12.46;50.21;99247.39;1826913;78;20985;-70
2022/03/04 09:07:26;;;;;;;3.45;3.15;;;;;;;12.49;50.22;99251.50;1826548;78;21190;-71
2022/03/04 09:09:52;;;;;;;3.58;2.75;;;;;;;12.51;50.20;99246.28;1827452;77;21004;-70
2022/03/04 09:12:19;;;;;;;3.33;2.83;;;;;;;12.52;50.21;99247.13;1817585;78;21068;-70
2022/03/04 09:14:46;;;;;;;3.47;3.17;;;;;;;12.56;50.17;99254.53;1804873;79;20994;-70
2022/03/04 09:17:14;;;;;;;3.10;2.60;;;;;;;12.59;50.20;99254.64;1805061;79;21025;-71
2022/03/04 09:19:40;;;;;;;4.00;3.10;;;;;;;12.60;50.13;99249.64;1804869;79;21234;-71
2022/03/04 09:22:07;;;;;;;3.05;2.60;;;;;;;12.62;50.13;99252.94;1804985;79;21021;-70
2022/03/04 09:24:33;;;;;;;3.58;2.85;;;;;;;12.63;50.12;99257.23;1804471;79;20974;-71
2022/03/04 09:27:00;;;;;;;3.17;2.87;;;;;;;12.65;50.11;99253.89;1815325;78;21017;-71
2022/03/04 09:29:26;;;;;;;3.85;3.05;;;;;;;12.67;50.07;99262.52;1819775;78;21016;-70
2022/03/04 09:31:53;;;;;;;3.75;3.25;;;;;;;12.68;50.02;99258.82;1820541;78;21150;-69
2022/03/04 09:34:19;;;;;;;3.47;2.83;;;;;;;12.70;50.00;99257.30;1837462;78;21034;-70
2022/03/04 09:36:46;;;;;;;3.30;2.90;;;;;;;12.71;49.97;99252.27;1837211;78;21462;-70
2022/03/04 09:39:12;;;;;;;3.77;2.75;;;;;;;12.72;49.95;99248.08;1837347;78;21006;-70
2022/03/04 09:41:40;;;;;;;3.37;2.87;;;;;;;12.74;49.92;99254.56;1837511;78;21021;-70
2022/03/04 09:44:07;;;;;;;3.58;3.25;;;;;;;12.77;49.89;99256.84;1836673;78;21206;-71
2022/03/04 09:46:33;;;;;;;3.50;3.20;;;;;;;12.77;49.88;99259.00;1837394;78;21049;-71
2022/03/04 09:48:59;;;;;;;2.85;2.50;;;;;;;12.78;49.86;99253.96;1837373;78;20987;-70
2022/03/04 09:51:27;;;;;;;4.80;3.00;;;;;;;12.81;49.86;99258.62;1837186;78;21002;-71
2022/03/04 09:53:54;;;;;;;4.15;3.20;;;;;;;12.83;49.85;99261.39;1827134;78;21474;-70
2022/03/04 09:56:21;;;;;;;3.33;3.00;;;;;;;12.84;49.88;99257.70;1807164;79;21127;-70
2022/03/04 09:58:48;;;;;;;3.17;2.80;;;;;;;12.86;49.89;99254.84;1806986;79;20971;-70
2022/03/04 10:01:15;;;;;;;3.02;2.72;;;;;;;12.88;49.89;99257.62;1817928;78;21068;-70
2022/03/04 10:03:45;;;;;;;3.30;2.92;;;;;;;12.89;49.85;99259.28;1819757;78;21480;-71
2022/03/04 10:06:12;;;;;;;3.75;3.00;;;;;;;12.91;49.84;99253.77;1820166;78;21052;-70
2022/03/04 10:08:48;;;;;;;3.10;2.80;;;;;;;12.94;49.88;99253.34;1819643;78;21102;-71
2022/03/04 10:11:30;;;;;;;3.37;2.90;;;;;;;12.95;49.90;99257.68;1819502;78;21076;-71
2022/03/04 10:14:11;;;;;;;4.10;3.17;;;;;;;12.97;49.90;99258.30;1845823;77;21636;-71
2022/03/04 10:16:37;;;;;;;3.55;3.25;;;;;;;13.00;49.90;99267.26;1773984;80;21510;-70
2022/03/04 10:19:16;;;;;;;3.70;3.10;;;;;;;13.02;49.92;99261.70;1775373;80;20990;-70
2022/03/04 10:22:00;;;;;;;3.40;2.90;;;;;;;13.03;49.88;99260.70;1775364;80;21223;-69
2022/03/04 10:24:38;;;;;;;3.67;3.00;;;;;;;13.05;49.88;99266.66;1847192;77;21014;-70
2022/03/04 10:27:14;;;;;;;3.47;3.10;;;;;;;13.07;49.87;99260.10;1847356;77;21002;-70
2022/03/04 10:29:45;;;;;;;3.90;3.25;;;;;;;13.08;49.85;99260.43;1775541;80;21082;-70
2022/03/04 10:32:27;;;;;;;3.00;2.80;;;;;;;13.10;49.80;99265.06;1776009;80;20998;-70
2022/03/04 10:35:06;;;;;;;3.92;3.30;;;;;;;13.12;49.77;99264.34;1852506;77;21114;-71
2022/03/04 10:37:51;;;;;;;2.90;2.60;;;;;;;13.14;49.79;99266.31;1852762;77;21009;-70
2022/03/04 10:40:20;;;;;;;3.98;3.58;;;;;;;13.16;49.75;99272.27;1811598;79;21033;-71
2022/03/04 10:42:52;;;;;;;3.52;3.05;;;;;;;13.21;49.74;99269.52;1853804;77;21473;-71
2022/03/04 10:45:31;;;;;;;3.50;2.80;;;;;;;13.23;49.72;99269.66;1854103;77;21974;-71
2022/03/04 10:48:10;;;;;;;3.55;3.20;;;;;;;13.25;49.69;99258.77;1853970;77;21181;-70
2022/03/04 10:50:47;;;;;;;3.67;3.30;;;;;;;13.29;49.66;99258.19;1852715;77;20990;-70
2022/03/04 10:53:20;;;;;;;3.37;2.98;;;;;;;13.33;49.64;99253.31;1847296;77;21026;-70
2022/03/04 10:55:56;;;;;;;4.03;3.37;;;;;;;13.36;49.61;99253.72;1775361;80;21034;-70
2022/03/04 10:58:31;;;;;;;3.12;2.72;;;;;;;13.40;49.63;99261.34;1765775;80;21050;-71
2022/03/04 11:01:05;;;;;;;3.35;2.80;;;;;;;13.43;49.55;99258.29;1852579;77;21092;-70
2022/03/04 11:03:32;;;;;;;3.47;3.00;;;;;;;13.47;49.51;99255.02;1853632;77;21011;-71
2022/03/04 11:06:04;;;;;;;4.03;3.08;;;;;;;13.51;49.48;99256.26;1854068;77;21014;-71
2022/03/04 11:08:31;;;;;;;3.17;2.50;;;;;;;13.54;49.44;99253.69;1852576;77;21005;-70
2022/03/04 11:10:58;;;;;;;4.12;2.77;;;;;;;13.57;49.38;99252.78;1854243;77;21271;-70
2022/03/04 11:13:24;;;;;;;3.35;2.60;;;;;;;13.60;49.36;99255.59;1850390;77;21215;-70
2022/03/04 11:15:53;;;;;;;2.90;2.62;;;;;;;13.64;49.31;99250.68;1848087;77;20998;-70
2022/03/04 11:18:21;;;;;;;3.55;3.08;;;;;;;13.66;49.25;99253.45;1847773;77;21013;-72
2022/03/04 11:20:55;;;;;;;3.27;2.95;;;;;;;13.70;49.22;99253.87;1847751;77;21019;-69
2022/03/04 11:23:26;;;;;;;3.08;2.77;;;;;;;13.72;49.17;99249.98;1847842;77;21042;-70
2022/03/04 11:25:59;;;;;;;3.20;2.90;;;;;;;13.76;49.19;99251.22;1846644;77;21197;-71
2022/03/04 11:28:29;;;;;;;3.22;2.92;;;;;;;13.79;49.16;99251.34;1847770;77;21489;-70
2022/03/04 11:31:00;;;;;;;3.75;3.15;;;;;;;13.85;49.19;99259.03;1844384;77;21021;-70
2022/03/04 11:33:31;;;;;;;3.50;2.98;;;;;;;13.90;49.16;99250.73;1785280;79;21050;-70
2022/03/04 11:36:07;;;;;;;3.95;2.80;;;;;;;13.96;49.14;99253.11;1808105;79;21037;-70
2022/03/04 11:38:54;;;;;;;3.20;2.90;;;;;;;14.02;49.08;99252.82;1807712;79;21120;-70